首页
METAR-TAF:

METAR-TAF

机场 :

大瀑布城, 蒙大拿州, 美国

纬度: 47-30N, 经度: 111-11W, 海拔: 1075米

当前天气观测

该预报发布于22分钟前的10:58 UTC
风速14节,风向西南
温度 2°C
湿度 64%
气压 1012 hPa
能見度: 16.1公里
阴天层高于15000英尺

METAR: KGFA 111058Z AUTO 22014KT 10SM OVC150 02/M04 A2988 RMK AO2 SLP144 T00151040 $

时间: 04:20 (11:20 UTC)

预报

该预报发布于20分钟前的11:00 UTC
预报有效从11日的 11点(UTC)到 12日的 17点(UTC)
风速12节,风向西南
能见度10公里或以上
阴天层高于10000英尺
成为
从 11日的 14点(UTC)到 11日的 15点(UTC)
风速15节,风向西转西南,有时为25节阵风
能见度10公里或以上
多云层高于5000英尺
成为
从 11日的 23点(UTC)到 11日的 24点(UTC)
风速9节,风向西南
能见度10公里或以上
散云层高于8000英尺

TAF: KGFA 111100Z 1111/1217 22012KT 9999 OVC100 QNH2985INS BECMG 1114/1115 25015G25KT 9999 BKN050 QNH2989INS BECMG 1123/1124 23009KT 9999 SCT080 QNH2991INS TX05/1121Z TNM06/1206Z

超过4000个机场的气象观测和天气预报(METAR&TAF报告)。

可查询的气象台以黄色和红色小点在地图上表示。

将鼠标移到小点上方,可查看气象台名称。

然后点击查看天气观测和预报。

如需切换地图:点击带黑十字的绿色按钮放大地图;点击带横线的绿色按钮缩小地图;或者点击绿色箭头查看邻近地区的地图。


METAR-TAF: